Lafe, Arkansas
Current Conditions -  °F | °C
As of 11:55 PM on Thursday 30 Oct 2014 (Local Time) from K4M9 Reporting Station
Clear Clear  
Wind Chill: 50°   Ceiling: Unl
Heat Index: 50°   Visibility: 10mi
Dew Point: 46°   Wind: 7mph
Humidity: 87%   Direction: 30°NNE
Pressure: 30.01"   Gusts: NA
Location:  36.2°N, 90.51°W
Report Text: K4M9 310455Z AUTO 03006KT 10SM CLR 10/08 A3001 RMK AO2
Loading
Personal Weather Stations






























Interactive Weather Map
Tropical Storm Tracking
New forecast layout! Learn more

10-Day Weather Forecast

Advertisements
Track Severe Weather on mobile